Time;durP1;ratioP1;P1;durP2;ratioP2;P2;SDS_P1;SDS_P2;PMS_P1;PMS_P2;Temp;Humidity;BMP_temperature;BMP_pressure;BME280_temperature;BME280_humidity;BME280_pressure;Samples;Min_cycle;Max_cycle;Signal;HPM_P1;HPM_P2
2022/03/03 00:00:52;;;;;;;30.42;2.63;;;8.00;99.90;;;;;;4973876;28;20034;-70
2022/03/03 00:03:17;;;;;;;2.30;1.55;;;8.00;99.90;;;;;;4974253;28;20034;-70
2022/03/03 00:05:43;;;;;;;4.28;0.60;;;7.90;99.90;;;;;;4974217;28;20031;-70
2022/03/03 00:08:08;;;;;;;4.15;0.30;;;7.80;99.90;;;;;;4974074;28;20034;-70
2022/03/03 00:10:34;;;;;;;0.63;0.63;;;7.70;99.90;;;;;;4973854;28;20027;-70
2022/03/03 00:13:00;;;;;;;0.17;0.13;;;7.60;99.90;;;;;;4988677;28;20039;-70
2022/03/03 00:15:25;;;;;;;2.55;0.80;;;7.50;99.90;;;;;;4988580;28;20081;-70
2022/03/03 00:17:51;;;;;;;0.20;0.20;;;7.40;99.90;;;;;;4973499;28;20035;-70
2022/03/03 00:20:17;;;;;;;2.78;1.08;;;7.40;99.90;;;;;;5005229;28;20027;-70
2022/03/03 00:22:44;;;;;;;0.00;0.00;;;7.40;99.90;;;;;;4973949;28;20109;-70
2022/03/03 00:25:10;;;;;;;3.25;0.70;;;7.50;99.90;;;;;;4976150;28;20030;-70
2022/03/03 00:27:36;;;;;;;0.47;0.47;;;7.50;99.90;;;;;;4977338;28;20033;-70
2022/03/03 00:30:03;;;;;;;0.25;0.10;;;7.50;99.90;;;;;;4977625;28;20062;-70
2022/03/03 00:32:28;;;;;;;0.00;0.00;;;7.40;99.90;;;;;;4977321;28;20026;-71
2022/03/03 00:34:54;;;;;;;0.00;0.00;;;7.40;99.90;;;;;;4976726;28;20023;-70
2022/03/03 00:37:20;;;;;;;0.00;0.00;;;7.30;99.90;;;;;;4977117;28;20027;-69
2022/03/03 00:39:45;;;;;;;0.00;0.00;;;7.30;99.90;;;;;;4976985;28;20019;-70
2022/03/03 00:42:11;;;;;;;1.55;1.45;;;7.30;99.90;;;;;;4977437;28;20026;-70
2022/03/03 00:44:37;;;;;;;0.00;0.00;;;7.30;99.90;;;;;;4977234;28;20529;-70
2022/03/03 00:47:02;;;;;;;3.90;1.08;;;7.30;99.90;;;;;;4977214;28;20494;-70
2022/03/03 00:49:28;;;;;;;0.00;0.00;;;7.30;99.90;;;;;;4983574;28;20072;-71
2022/03/03 00:51:54;;;;;;;0.00;0.00;;;7.30;99.90;;;;;;4996262;28;20548;-70
2022/03/03 00:54:19;;;;;;;0.10;0.10;;;7.30;99.90;;;;;;4996228;28;20121;-70
2022/03/03 00:56:46;;;;;;;0.00;0.00;;;7.30;99.90;;;;;;4996592;28;20033;-70
2022/03/03 00:59:12;;;;;;;0.00;0.00;;;7.40;99.90;;;;;;4979667;28;20490;-70
2022/03/03 01:01:37;;;;;;;3.20;1.13;;;7.30;99.90;;;;;;4976911;28;20053;-70
2022/03/03 01:04:03;;;;;;;0.00;0.00;;;7.40;99.90;;;;;;4976738;28;20023;-70
2022/03/03 01:06:29;;;;;;;0.00;0.00;;;7.40;99.90;;;;;;4976780;28;20397;-71
2022/03/03 01:08:55;;;;;;;0.00;0.00;;;7.40;99.90;;;;;;4976415;28;20402;-70
2022/03/03 01:11:20;;;;;;;0.00;0.00;;;7.50;99.90;;;;;;4976063;28;20031;-70
2022/03/03 01:13:46;;;;;;;0.00;0.00;;;7.50;99.90;;;;;;4976582;28;20082;-69
2022/03/03 01:16:12;;;;;;;0.00;0.00;;;7.60;99.90;;;;;;4975792;28;20465;-70
2022/03/03 01:18:37;;;;;;;4.95;0.70;;;7.60;99.90;;;;;;4976220;28;20027;-71
2022/03/03 01:21:03;;;;;;;0.00;0.00;;;7.60;99.90;;;;;;4991361;28;20548;-70
2022/03/03 01:23:29;;;;;;;0.00;0.00;;;7.70;99.90;;;;;;4976260;28;20050;-71
2022/03/03 01:25:54;;;;;;;0.35;0.35;;;7.80;99.90;;;;;;4976274;28;20037;-71
2022/03/03 01:28:20;;;;;;;0.00;0.00;;;7.80;99.90;;;;;;4976337;28;20098;-70
2022/03/03 01:30:46;;;;;;;0.00;0.00;;;7.90;99.90;;;;;;4976423;28;20050;-71
2022/03/03 01:33:12;;;;;;;0.10;0.10;;;7.90;99.90;;;;;;5007213;28;20114;-71
2022/03/03 01:35:39;;;;;;;1.65;0.40;;;7.90;99.90;;;;;;4975608;28;20118;-70
2022/03/03 01:38:04;;;;;;;0.00;0.00;;;7.90;99.90;;;;;;4974968;28;20561;-71
2022/03/03 01:40:30;;;;;;;0.00;0.00;;;7.90;99.90;;;;;;4975197;28;20150;-71
2022/03/03 01:42:57;;;;;;;0.00;0.00;;;7.90;99.90;;;;;;4975723;28;20026;-70
2022/03/03 01:45:23;;;;;;;0.13;0.13;;;7.90;99.90;;;;;;4975232;28;20054;-71
2022/03/03 01:47:48;;;;;;;0.30;0.20;;;7.80;99.90;;;;;;5007315;28;20081;-71
2022/03/03 01:50:14;;;;;;;0.68;0.68;;;7.80;99.90;;;;;;4989097;28;20030;-71
2022/03/03 01:52:40;;;;;;;0.85;0.52;;;7.80;99.90;;;;;;4995269;28;20031;-71
2022/03/03 01:55:06;;;;;;;0.05;0.05;;;7.80;99.90;;;;;;4994840;28;20034;-71
2022/03/03 01:57:32;;;;;;;0.17;0.17;;;7.90;99.90;;;;;;4995162;28;20085;-71
2022/03/03 01:59:58;;;;;;;0.08;0.08;;;7.90;99.90;;;;;;4994088;28;20038;-71
2022/03/03 02:02:27;;;;;;;0.32;0.32;;;7.90;99.90;;;;;;4994786;28;20022;-71
2022/03/03 02:04:52;;;;;;;2.15;1.95;;;7.90;99.90;;;;;;4995118;28;20100;-70
2022/03/03 02:07:18;;;;;;;0.10;0.10;;;7.90;99.90;;;;;;4995065;28;20030;-70
2022/03/03 02:09:44;;;;;;;0.10;0.10;;;7.90;99.90;;;;;;4994572;28;20058;-70
2022/03/03 02:12:10;;;;;;;0.10;0.08;;;7.90;99.90;;;;;;4994766;28;20029;-71
2022/03/03 02:14:42;;;;;;;0.20;0.20;;;7.90;99.90;;;;;;4995199;28;20109;-71
2022/03/03 02:17:08;;;;;;;0.43;0.35;;;8.00;99.90;;;;;;4993905;28;20080;-70
2022/03/03 02:19:34;;;;;;;0.03;0.03;;;8.00;99.90;;;;;;4993898;28;20038;-70
2022/03/03 02:21:59;;;;;;;3.75;0.57;;;8.00;99.90;;;;;;4994921;28;20018;-71
2022/03/03 02:24:25;;;;;;;0.00;0.00;;;8.00;99.90;;;;;;4994984;28;20030;-70
2022/03/03 02:26:54;;;;;;;0.10;0.10;;;8.00;99.90;;;;;;4995347;28;20168;-70
2022/03/03 02:29:20;;;;;;;0.10;0.10;;;8.10;99.90;;;;;;4993326;28;20037;-71
2022/03/03 02:31:45;;;;;;;0.20;0.20;;;8.10;99.90;;;;;;4994696;28;20389;-71
2022/03/03 02:34:11;;;;;;;0.17;0.17;;;8.20;99.90;;;;;;4994400;28;20018;-70
2022/03/03 02:36:37;;;;;;;0.10;0.10;;;8.20;99.90;;;;;;4994557;28;20408;-71
2022/03/03 02:39:05;;;;;;;0.17;0.17;;;8.20;99.90;;;;;;4994256;28;20035;-71
2022/03/03 02:41:31;;;;;;;0.05;0.05;;;8.30;99.90;;;;;;4994558;28;20033;-71
2022/03/03 02:43:58;;;;;;;0.40;0.40;;;8.30;99.90;;;;;;4994591;28;20121;-71
2022/03/03 02:46:24;;;;;;;0.00;0.00;;;8.30;99.90;;;;;;4994520;28;20102;-71
2022/03/03 02:48:50;;;;;;;0.10;0.10;;;8.30;99.90;;;;;;4993854;28;20065;-71
2022/03/03 02:51:16;;;;;;;0.00;0.00;;;8.30;99.90;;;;;;4994362;28;20389;-71
2022/03/03 02:53:42;;;;;;;0.00;0.00;;;8.30;99.90;;;;;;4993860;28;20041;-71
2022/03/03 02:56:09;;;;;;;0.00;0.00;;;8.30;99.90;;;;;;4993738;28;20026;-70
2022/03/03 02:58:35;;;;;;;3.42;0.95;;;8.40;99.90;;;;;;4994200;28;20113;-71
2022/03/03 03:01:05;;;;;;;0.00;0.00;;;8.40;99.90;;;;;;4994104;28;20080;-70
2022/03/03 03:03:31;;;;;;;0.00;0.00;;;8.40;99.90;;;;;;4993967;28;20022;-71
2022/03/03 03:05:56;;;;;;;0.55;0.55;;;8.40;99.90;;;;;;4993993;28;20041;-71
2022/03/03 03:08:22;;;;;;;0.00;0.00;;;8.50;99.90;;;;;;4993993;28;20031;-71
2022/03/03 03:10:48;;;;;;;0.08;0.08;;;8.50;99.90;;;;;;4994232;28;20375;-70
2022/03/03 03:13:14;;;;;;;0.22;0.22;;;8.50;99.90;;;;;;4993763;28;20478;-70
2022/03/03 03:15:43;;;;;;;0.00;0.00;;;8.50;99.90;;;;;;4993304;28;20031;-71
2022/03/03 03:18:13;;;;;;;0.08;0.08;;;8.50;99.90;;;;;;4994279;28;20052;-71
2022/03/03 03:20:41;;;;;;;17.20;1.08;;;8.50;99.90;;;;;;4994150;28;20026;-71
2022/03/03 03:23:08;;;;;;;0.13;0.13;;;8.50;99.90;;;;;;4993940;28;20478;-71
2022/03/03 03:25:37;;;;;;;0.08;0.08;;;8.50;99.90;;;;;;4993923;28;20474;-70
2022/03/03 03:28:04;;;;;;;0.65;0.43;;;8.60;99.90;;;;;;4993726;28;20444;-70
2022/03/03 03:30:29;;;;;;;0.00;0.00;;;8.60;99.90;;;;;;4991547;28;20114;-70
2022/03/03 03:32:55;;;;;;;0.00;0.00;;;8.60;99.90;;;;;;4994011;28;20549;-70
2022/03/03 03:35:21;;;;;;;0.82;0.80;;;8.50;99.90;;;;;;4993067;28;20026;-71
2022/03/03 03:37:47;;;;;;;0.00;0.00;;;8.50;99.90;;;;;;4994361;28;20485;-71
2022/03/03 03:40:13;;;;;;;0.20;0.10;;;8.50;99.90;;;;;;4993253;28;20026;-70
2022/03/03 03:42:39;;;;;;;0.00;0.00;;;8.60;99.90;;;;;;4993629;28;20402;-71
2022/03/03 03:45:05;;;;;;;0.00;0.00;;;8.60;99.90;;;;;;4993577;28;20043;-71
2022/03/03 03:47:31;;;;;;;0.00;0.00;;;8.60;99.90;;;;;;4993920;28;20023;-71
2022/03/03 03:49:56;;;;;;;1.38;1.27;;;8.60;99.90;;;;;;4993486;28;20375;-71
2022/03/03 03:52:22;;;;;;;0.43;0.43;;;8.60;99.90;;;;;;4992494;28;20034;-70
2022/03/03 03:54:48;;;;;;;0.00;0.00;;;8.70;99.90;;;;;;4993364;28;20031;-70
2022/03/03 03:57:13;;;;;;;1.60;1.35;;;8.70;99.90;;;;;;4992247;28;20034;-70
2022/03/03 03:59:40;;;;;;;0.00;0.00;;;8.70;99.90;;;;;;4977356;28;20545;-71
2022/03/03 04:02:06;;;;;;;0.00;0.00;;;8.70;99.90;;;;;;4978232;28;20022;-70
2022/03/03 04:04:31;;;;;;;0.52;0.52;;;8.70;99.90;;;;;;4977214;28;20027;-71
2022/03/03 04:06:57;;;;;;;0.65;0.65;;;8.70;99.90;;;;;;4978153;28;20026;-70
2022/03/03 04:09:23;;;;;;;0.00;0.00;;;8.80;99.90;;;;;;4977422;28;20079;-70
2022/03/03 04:11:48;;;;;;;0.00;0.00;;;8.80;99.90;;;;;;4977173;28;20031;-70
2022/03/03 04:14:14;;;;;;;0.03;0.03;;;8.80;99.90;;;;;;4977967;28;20030;-71
2022/03/03 04:16:39;;;;;;;0.10;0.10;;;8.80;99.90;;;;;;4975534;28;20023;-71
2022/03/03 04:19:05;;;;;;;0.93;0.68;;;8.80;99.90;;;;;;5008460;28;20038;-71
2022/03/03 04:21:31;;;;;;;0.45;0.45;;;8.80;99.90;;;;;;4977813;28;20038;-71
2022/03/03 04:23:57;;;;;;;0.15;0.15;;;8.80;99.90;;;;;;4977399;28;20441;-71
2022/03/03 04:26:23;;;;;;;1.55;0.43;;;8.90;99.90;;;;;;4977666;28;20481;-71
2022/03/03 04:28:48;;;;;;;0.38;0.25;;;8.90;99.90;;;;;;4977435;28;20034;-71
2022/03/03 04:31:14;;;;;;;0.08;0.08;;;8.90;99.90;;;;;;4977532;28;20027;-71
2022/03/03 04:33:41;;;;;;;0.10;0.10;;;8.90;99.90;;;;;;4977280;28;20030;-71
2022/03/03 04:36:06;;;;;;;0.00;0.00;;;8.90;99.90;;;;;;4977447;28;20038;-71
2022/03/03 04:38:35;;;;;;;0.00;0.00;;;8.90;99.90;;;;;;4977054;28;20027;-71
2022/03/03 04:41:00;;;;;;;0.75;0.75;;;8.90;99.90;;;;;;4976802;28;20508;-71
2022/03/03 04:43:26;;;;;;;0.25;0.25;;;8.90;99.90;;;;;;4976871;28;20030;-71
2022/03/03 04:45:52;;;;;;;0.30;0.30;;;8.90;99.90;;;;;;4977502;28;20045;-70
2022/03/03 04:48:17;;;;;;;0.77;0.20;;;9.00;99.90;;;;;;4977441;28;20030;-70
2022/03/03 04:50:43;;;;;;;0.08;0.00;;;9.00;99.90;;;;;;4994199;28;20510;-70
2022/03/03 04:53:08;;;;;;;2.83;1.08;;;9.00;99.90;;;;;;4996546;28;20030;-71
2022/03/03 04:55:37;;;;;;;0.00;0.00;;;8.90;99.90;;;;;;4996037;28;20035;-71
2022/03/03 04:58:03;;;;;;;0.43;0.43;;;9.00;99.90;;;;;;4994847;28;20556;-71
2022/03/03 05:00:28;;;;;;;0.10;0.10;;;9.00;99.90;;;;;;4996274;28;20046;-70
2022/03/03 05:02:54;;;;;;;0.10;0.10;;;9.00;99.90;;;;;;4996369;28;20478;-71
2022/03/03 05:05:20;;;;;;;0.00;0.00;;;9.00;99.90;;;;;;4996066;28;20065;-71
2022/03/03 05:07:45;;;;;;;0.30;0.30;;;9.00;99.90;;;;;;4995945;28;20022;-71
2022/03/03 05:10:11;;;;;;;0.20;0.20;;;9.00;99.90;;;;;;4994707;28;20049;-70
2022/03/03 05:12:37;;;;;;;0.10;0.10;;;9.00;99.90;;;;;;4995393;28;20030;-71
2022/03/03 05:15:04;;;;;;;0.00;0.00;;;9.00;99.90;;;;;;4994085;28;20034;-71
2022/03/03 05:17:30;;;;;;;2.15;0.47;;;9.00;99.90;;;;;;4995178;28;20045;-71
2022/03/03 05:19:57;;;;;;;1.15;1.05;;;9.00;99.90;;;;;;4996058;28;20072;-71
2022/03/03 05:22:22;;;;;;;0.00;0.00;;;9.00;99.90;;;;;;4995826;28;20026;-70
2022/03/03 05:24:50;;;;;;;0.10;0.10;;;9.00;99.90;;;;;;4995565;28;20375;-71
2022/03/03 05:27:16;;;;;;;0.10;0.10;;;9.00;99.90;;;;;;4995361;28;20027;-71
2022/03/03 05:29:41;;;;;;;1.27;1.02;;;9.00;99.90;;;;;;4995857;28;20101;-71
2022/03/03 05:32:07;;;;;;;0.10;0.10;;;9.00;99.90;;;;;;4995934;28;20031;-71
2022/03/03 05:34:33;;;;;;;0.65;0.30;;;9.00;99.90;;;;;;4995601;28;20092;-71
2022/03/03 05:37:00;;;;;;;0.05;0.05;;;9.00;99.90;;;;;;4995674;28;20022;-71
2022/03/03 05:39:27;;;;;;;0.00;0.00;;;9.00;99.90;;;;;;4995225;28;20034;-72
2022/03/03 05:41:55;;;;;;;0.10;0.03;;;9.00;99.90;;;;;;4995705;28;20045;-71
2022/03/03 05:44:24;;;;;;;0.00;0.00;;;9.00;99.90;;;;;;4995298;28;20652;-71
2022/03/03 05:46:50;;;;;;;0.20;0.20;;;9.10;99.90;;;;;;4995532;28;20093;-71
2022/03/03 05:49:19;;;;;;;0.00;0.00;;;9.10;99.90;;;;;;4994402;28;20466;-71
2022/03/03 05:51:45;;;;;;;0.10;0.10;;;9.10;99.90;;;;;;4994893;28;20038;-71
2022/03/03 05:54:10;;;;;;;0.15;0.15;;;9.00;99.90;;;;;;4993410;28;20026;-71
2022/03/03 05:56:38;;;;;;;0.00;0.00;;;9.10;99.90;;;;;;4995724;28;20053;-71
2022/03/03 05:59:07;;;;;;;0.00;0.00;;;9.10;99.90;;;;;;4992065;28;20041;-71
2022/03/03 06:01:38;;;;;;;0.00;0.00;;;9.10;99.90;;;;;;4995054;28;20039;-70
2022/03/03 06:04:06;;;;;;;0.00;0.00;;;9.10;99.90;;;;;;4994970;28;20481;-71
2022/03/03 06:06:35;;;;;;;0.10;0.10;;;9.10;99.90;;;;;;4994898;28;20030;-71
2022/03/03 06:09:25;;;;;;;0.00;0.00;;;9.20;99.90;;;;;;4993811;28;20042;-71
2022/03/03 06:12:06;;;;;;;0.32;0.20;;;9.20;99.90;;;;;;4995018;28;20030;-71
2022/03/03 06:14:52;;;;;;;0.28;0.28;;;9.20;99.90;;;;;;4995066;28;20485;-71
2022/03/03 06:17:22;;;;;;;0.10;0.10;;;9.20;99.90;;;;;;4994017;28;20031;-71
2022/03/03 06:19:49;;;;;;;0.30;0.22;;;9.20;99.90;;;;;;4993590;28;20109;-71
2022/03/03 06:22:15;;;;;;;0.93;0.13;;;9.20;99.90;;;;;;4994201;28;20015;-70
2022/03/03 06:24:41;;;;;;;3.75;0.55;;;9.20;99.90;;;;;;4993306;28;20401;-71
2022/03/03 06:27:08;;;;;;;0.00;0.00;;;9.30;99.90;;;;;;4993941;28;20031;-71
2022/03/03 06:29:34;;;;;;;0.75;0.75;;;9.20;99.90;;;;;;4994205;28;20034;-70
2022/03/03 06:32:02;;;;;;;1.45;0.68;;;9.30;99.90;;;;;;4994662;28;20077;-71
2022/03/03 06:34:28;;;;;;;0.05;0.05;;;9.30;99.90;;;;;;4994384;28;20101;-71
2022/03/03 06:36:54;;;;;;;0.10;0.10;;;9.30;99.90;;;;;;4991281;28;20513;-71
2022/03/03 06:39:20;;;;;;;1.13;0.65;;;9.30;99.90;;;;;;4993377;28;20050;-70
2022/03/03 06:41:46;;;;;;;0.10;0.10;;;9.30;99.90;;;;;;4993530;28;20022;-70
2022/03/03 06:44:12;;;;;;;0.10;0.05;;;9.30;99.90;;;;;;4992566;28;20053;-69
2022/03/03 06:46:38;;;;;;;0.00;0.00;;;9.30;99.90;;;;;;4993592;28;20026;-70
2022/03/03 06:49:05;;;;;;;0.00;0.00;;;9.30;99.90;;;;;;4992984;28;20023;-71
2022/03/03 06:51:47;;;;;;;0.00;0.00;;;9.30;99.90;;;;;;4991916;28;20033;-70
2022/03/03 06:54:22;;;;;;;0.00;0.00;;;9.30;99.90;;;;;;4992871;28;20034;-70
2022/03/03 06:56:57;;;;;;;0.00;0.00;;;9.30;99.90;;;;;;4993893;28;20019;-70
2022/03/03 06:59:33;;;;;;;0.00;0.00;;;9.30;99.90;;;;;;4983305;28;20152;-71
2022/03/03 07:02:00;;;;;;;0.10;0.10;;;9.30;99.90;;;;;;4989200;28;20726;-72
2022/03/03 07:04:28;;;;;;;0.03;0.03;;;9.30;99.90;;;;;;4991881;28;20058;-71
2022/03/03 07:06:54;;;;;;;0.38;0.38;;;9.30;99.90;;;;;;4991506;28;20035;-72
2022/03/03 07:09:20;;;;;;;3.03;2.10;;;9.40;99.90;;;;;;4985385;28;20031;-71
2022/03/03 07:11:48;;;;;;;0.00;0.00;;;9.40;99.90;;;;;;4993038;28;20025;-72
2022/03/03 07:14:14;;;;;;;0.10;0.10;;;9.40;99.90;;;;;;4979468;28;20214;-72
2022/03/03 07:16:41;;;;;;;0.65;0.35;;;9.40;99.90;;;;;;4973435;28;20023;-72
2022/03/03 07:19:30;;;;;;;0.50;0.50;;;9.40;99.90;;;;;;4972957;28;20019;-71
2022/03/03 07:22:03;;;;;;;0.17;0.17;;;9.40;99.90;;;;;;4980846;28;20054;-71
2022/03/03 07:24:30;;;;;;;0.25;0.25;;;9.40;99.90;;;;;;4980738;28;20035;-71
2022/03/03 07:27:04;;;;;;;2.10;1.33;;;9.40;99.90;;;;;;4977528;28;20030;-72
2022/03/03 07:29:34;;;;;;;0.10;0.10;;;9.40;99.90;;;;;;4970076;28;20026;-72
2022/03/03 07:32:06;;;;;;;1.30;1.13;;;9.40;99.90;;;;;;4989693;28;20482;-72
2022/03/03 07:34:38;;;;;;;1.23;0.40;;;9.40;99.90;;;;;;4993442;28;20022;-71
2022/03/03 07:37:10;;;;;;;0.20;0.15;;;9.40;99.90;;;;;;4991886;28;20058;-71
2022/03/03 07:39:43;;;;;;;14.38;1.25;;;9.40;99.90;;;;;;4995187;28;20051;-72
2022/03/03 07:42:14;;;;;;;0.30;0.30;;;9.40;99.90;;;;;;4993997;28;20093;-72
2022/03/03 07:44:40;;;;;;;1.17;1.08;;;9.40;99.90;;;;;;4998330;28;20042;-71
2022/03/03 07:47:07;;;;;;;1.48;1.38;;;9.40;99.90;;;;;;4991113;28;20104;-71
2022/03/03 07:49:33;;;;;;;2.05;0.90;;;9.40;99.90;;;;;;4994704;28;20031;-71
2022/03/03 07:51:59;;;;;;;0.75;0.75;;;9.50;99.90;;;;;;4990714;28;20082;-72
2022/03/03 07:54:24;;;;;;;1.55;0.70;;;9.40;99.90;;;;;;4993116;28;20026;-71
2022/03/03 07:56:55;;;;;;;0.50;0.50;;;9.50;99.90;;;;;;4993358;28;20033;-72
2022/03/03 07:59:27;;;;;;;0.00;0.00;;;9.50;99.90;;;;;;4992658;28;20038;-72
2022/03/03 08:01:56;;;;;;;1.38;0.50;;;9.50;99.90;;;;;;4995393;28;20385;-71
2022/03/03 08:04:30;;;;;;;0.10;0.10;;;9.50;99.90;;;;;;4982329;28;20018;-73
2022/03/03 08:07:04;;;;;;;0.35;0.35;;;9.60;99.90;;;;;;4984903;28;20027;-72
2022/03/03 08:09:32;;;;;;;0.57;0.57;;;9.70;99.90;;;;;;4988440;28;20026;-72
2022/03/03 08:12:02;;;;;;;0.32;0.32;;;9.70;99.90;;;;;;4979914;28;20502;-72
2022/03/03 08:14:30;;;;;;;0.00;0.00;;;9.80;99.90;;;;;;4984034;28;20030;-71
2022/03/03 08:16:56;;;;;;;0.25;0.25;;;9.80;99.90;;;;;;4985861;28;20030;-72
2022/03/03 08:19:22;;;;;;;0.75;0.65;;;10.00;99.90;;;;;;4988483;28;20727;-72
2022/03/03 08:21:49;;;;;;;0.85;0.75;;;10.00;99.90;;;;;;4991078;28;20026;-72
2022/03/03 08:24:15;;;;;;;1.02;0.90;;;9.90;99.90;;;;;;4994066;28;20145;-71
2022/03/03 08:26:45;;;;;;;0.30;0.30;;;10.10;99.90;;;;;;4995120;28;20038;-71
2022/03/03 08:29:12;;;;;;;0.10;0.10;;;10.00;99.90;;;;;;4983235;28;20034;-72
2022/03/03 08:31:40;;;;;;;0.22;0.22;;;9.90;99.90;;;;;;4993930;28;20034;-71
2022/03/03 08:34:18;;;;;;;0.77;0.77;;;9.90;99.90;;;;;;4989407;28;20508;-72
2022/03/03 08:36:54;;;;;;;0.22;0.22;;;10.00;99.90;;;;;;4994548;28;20034;-71
2022/03/03 08:39:26;;;;;;;0.25;0.25;;;10.00;99.90;;;;;;4989085;28;20019;-71
2022/03/03 08:42:02;;;;;;;2.05;0.57;;;10.10;99.90;;;;;;4987201;28;20038;-71
2022/03/03 08:44:38;;;;;;;0.52;0.52;;;10.20;99.90;;;;;;4986639;28;20035;-71
2022/03/03 08:47:05;;;;;;;0.10;0.10;;;10.30;99.90;;;;;;4992908;28;20030;-71
2022/03/03 08:49:39;;;;;;;0.00;0.00;;;10.40;99.90;;;;;;4994201;28;20069;-71
2022/03/03 08:52:06;;;;;;;0.28;0.28;;;10.40;99.90;;;;;;4978626;28;20105;-71
2022/03/03 08:54:31;;;;;;;0.70;0.43;;;10.50;99.90;;;;;;4978213;28;20393;-71
2022/03/03 08:56:57;;;;;;;0.80;0.47;;;10.40;99.90;;;;;;4982894;28;20030;-72
2022/03/03 08:59:23;;;;;;;4.03;1.73;;;10.60;99.90;;;;;;4988534;28;20038;-72
2022/03/03 09:01:49;;;;;;;0.10;0.10;;;10.60;99.90;;;;;;4988995;28;20041;-71
2022/03/03 09:04:14;;;;;;;0.10;0.10;;;10.50;99.90;;;;;;4991072;28;20026;-71
2022/03/03 09:06:40;;;;;;;0.08;0.08;;;10.60;99.90;;;;;;4993907;28;20026;-72
2022/03/03 09:09:06;;;;;;;1.55;0.70;;;10.70;99.90;;;;;;4992230;28;20029;-71
2022/03/03 09:11:31;;;;;;;0.55;0.30;;;10.90;99.90;;;;;;4982656;28;20462;-73
2022/03/03 09:13:57;;;;;;;4.63;1.23;;;11.00;99.90;;;;;;4976089;28;20037;-72
2022/03/03 09:16:23;;;;;;;1.35;0.35;;;10.80;99.90;;;;;;4986273;28;20042;-71
2022/03/03 09:18:48;;;;;;;0.00;0.00;;;10.80;99.90;;;;;;4985704;28;20074;-72
2022/03/03 09:21:15;;;;;;;7.03;1.75;;;10.70;99.90;;;;;;4990805;28;20037;-71
2022/03/03 09:23:42;;;;;;;0.03;0.03;;;10.80;99.90;;;;;;4993669;28;20050;-73
2022/03/03 09:26:08;;;;;;;1.08;1.08;;;10.90;99.90;;;;;;4993705;28;20061;-74
2022/03/03 09:28:34;;;;;;;1.08;1.05;;;10.80;99.90;;;;;;4988059;28;20488;-72
2022/03/03 09:31:00;;;;;;;0.20;0.20;;;10.90;99.90;;;;;;4990317;28;20402;-73
2022/03/03 09:33:26;;;;;;;0.45;0.32;;;11.10;99.90;;;;;;4991907;28;20130;-73
2022/03/03 09:35:51;;;;;;;0.28;0.28;;;11.10;99.90;;;;;;4990491;28;20041;-73
2022/03/03 09:38:17;;;;;;;0.10;0.10;;;11.20;99.90;;;;;;4996085;28;20034;-72
2022/03/03 09:40:44;;;;;;;0.00;0.00;;;11.20;99.90;;;;;;4992461;28;20034;-73
2022/03/03 09:43:10;;;;;;;0.70;0.45;;;11.30;99.90;;;;;;4990107;28;20084;-73
2022/03/03 09:45:37;;;;;;;0.40;0.40;;;11.20;99.90;;;;;;4972846;28;20058;-72
2022/03/03 09:48:05;;;;;;;0.30;0.30;;;11.20;99.90;;;;;;4978916;28;20101;-72
2022/03/03 09:50:32;;;;;;;0.03;0.00;;;11.30;99.90;;;;;;4987691;28;20514;-73
2022/03/03 09:52:58;;;;;;;1.30;0.65;;;11.40;99.90;;;;;;4991355;28;20409;-73
2022/03/03 09:55:25;;;;;;;0.00;0.00;;;11.50;99.90;;;;;;4971623;28;20424;-71
2022/03/03 09:57:51;;;;;;;0.00;0.00;;;11.60;99.90;;;;;;4976892;28;20584;-72
2022/03/03 10:00:18;;;;;;;0.20;0.20;;;11.60;99.90;;;;;;4976506;28;20508;-72
2022/03/03 10:02:58;;;;;;;0.10;0.10;;;11.70;99.90;;;;;;4989414;28;20042;-71
2022/03/03 10:05:34;;;;;;;0.65;0.65;;;11.80;99.90;;;;;;4989970;28;20125;-72
2022/03/03 10:08:05;;;;;;;0.52;0.22;;;11.80;99.90;;;;;;4986083;28;20085;-71
2022/03/03 10:10:32;;;;;;;0.15;0.15;;;11.80;99.90;;;;;;4978606;28;20023;-71
2022/03/03 10:12:58;;;;;;;0.10;0.10;;;11.90;99.90;;;;;;4987839;28;20030;-71
2022/03/03 10:15:31;;;;;;;0.30;0.30;;;11.90;99.90;;;;;;4981587;28;20034;-72
2022/03/03 10:18:02;;;;;;;3.20;1.27;;;12.00;99.90;;;;;;4990579;28;20031;-72
2022/03/03 10:20:30;;;;;;;0.55;0.50;;;11.90;99.90;;;;;;4990181;28;20463;-72
2022/03/03 10:22:58;;;;;;;1.00;0.55;;;11.80;99.90;;;;;;4984072;28;20031;-72
2022/03/03 10:25:33;;;;;;;0.85;0.85;;;11.80;99.90;;;;;;4981921;28;20031;-72
2022/03/03 10:28:17;;;;;;;0.63;0.63;;;11.90;99.90;;;;;;5000955;28;20060;-72
2022/03/03 10:31:09;;;;;;;2.08;1.13;;;12.00;99.90;;;;;;4993882;28;20049;-73
2022/03/03 10:33:40;;;;;;;1.02;0.60;;;11.90;99.90;;;;;;4983993;28;20042;-72
2022/03/03 10:36:26;;;;;;;1.08;0.68;;;11.90;99.90;;;;;;4993252;28;20401;-72
2022/03/03 10:38:55;;;;;;;2.08;0.98;;;11.80;99.90;;;;;;4997918;28;20078;-73
2022/03/03 10:41:35;;;;;;;0.15;0.15;;;11.80;99.90;;;;;;4989010;28;20031;-72
2022/03/03 10:44:30;;;;;;;0.90;0.85;;;11.90;99.90;;;;;;4987614;28;20149;-73
2022/03/03 10:47:07;;;;;;;0.28;0.28;;;12.00;99.90;;;;;;4979456;28;20504;-72
2022/03/03 10:49:39;;;;;;;0.10;0.10;;;12.00;99.90;;;;;;4993129;28;20054;-72
2022/03/03 10:52:11;;;;;;;0.00;0.00;;;12.20;99.90;;;;;;5006532;28;20359;-72
2022/03/03 10:54:53;;;;;;;1.73;0.95;;;12.30;99.90;;;;;;4985845;28;20070;-72
2022/03/03 10:57:42;;;;;;;0.30;0.30;;;12.50;99.90;;;;;;4973509;28;20498;-72
2022/03/03 11:00:20;;;;;;;1.25;0.63;;;12.50;99.90;;;;;;4980829;28;20062;-72
2022/03/03 11:02:51;;;;;;;1.75;0.40;;;12.70;99.90;;;;;;4982258;28;20030;-72
2022/03/03 11:05:19;;;;;;;2.53;1.17;;;13.00;99.90;;;;;;4986650;28;20026;-72
2022/03/03 11:07:46;;;;;;;0.65;0.38;;;13.00;99.90;;;;;;4983768;28;20077;-72
2022/03/03 11:10:17;;;;;;;0.00;0.00;;;12.90;99.90;;;;;;4990152;28;20054;-72
2022/03/03 11:12:43;;;;;;;0.15;0.15;;;12.80;99.90;;;;;;4975121;28;20497;-72
2022/03/03 11:15:10;;;;;;;0.20;0.20;;;12.50;99.90;;;;;;4985894;28;20110;-72
2022/03/03 11:17:36;;;;;;;0.10;0.10;;;12.60;99.90;;;;;;4979586;28;20366;-72
2022/03/03 11:20:04;;;;;;;1.35;1.13;;;12.40;99.90;;;;;;4983499;28;20034;-73
2022/03/03 11:22:31;;;;;;;0.20;0.20;;;12.40;99.90;;;;;;4991771;28;20018;-72
2022/03/03 11:25:03;;;;;;;0.10;0.10;;;12.50;99.90;;;;;;4982391;28;20031;-72
2022/03/03 11:27:37;;;;;;;3.50;0.60;;;12.40;99.90;;;;;;4972324;28;20402;-72
2022/03/03 11:30:17;;;;;;;0.20;0.20;;;12.40;99.90;;;;;;4984874;28;20109;-72
2022/03/03 11:32:45;;;;;;;0.30;0.30;;;12.40;99.90;;;;;;4988731;28;20881;-72
2022/03/03 11:35:14;;;;;;;0.05;0.05;;;12.60;99.90;;;;;;4979342;28;20426;-72
2022/03/03 11:37:41;;;;;;;2.35;0.77;;;12.80;99.90;;;;;;4981946;28;20054;-72
2022/03/03 11:40:08;;;;;;;1.83;0.17;;;12.90;99.90;;;;;;4985031;28;20037;-72
2022/03/03 11:42:37;;;;;;;0.57;0.40;;;13.30;99.90;;;;;;4978027;28;20022;-72
2022/03/03 11:45:09;;;;;;;1.67;1.30;;;13.40;99.90;;;;;;4978189;28;20042;-72
2022/03/03 11:47:36;;;;;;;0.47;0.40;;;13.40;99.90;;;;;;4972766;28;20375;-72
2022/03/03 11:50:25;;;;;;;0.10;0.00;;;13.60;99.90;;;;;;4978902;28;20093;-72
2022/03/03 11:52:57;;;;;;;0.30;0.30;;;13.60;99.90;;;;;;4969571;28;20420;-72
2022/03/03 11:55:30;;;;;;;0.60;0.43;;;13.60;99.90;;;;;;4967135;28;20118;-72
2022/03/03 11:57:58;;;;;;;;;;;13.70;99.90;;;;;;4958203;28;20045;-72
2022/03/03 12:00:24;;;;;;;2.15;1.35;;;13.60;99.90;;;;;;4971661;28;19925;-72
2022/03/03 12:03:02;;;;;;;2.90;1.40;;;13.40;99.90;;;;;;4966060;28;20045;-73
2022/03/03 12:05:27;;;;;;;0.20;0.20;;;13.40;99.90;;;;;;4981168;28;20022;-73
2022/03/03 12:07:57;;;;;;;0.30;0.30;;;13.60;99.90;;;;;;4977816;28;20092;-72
2022/03/03 12:10:23;;;;;;;0.85;0.28;;;13.60;99.90;;;;;;4973422;28;20049;-72
2022/03/03 12:12:49;;;;;;;1.48;0.40;;;13.70;99.90;;;;;;4962571;28;20796;-72
2022/03/03 12:15:15;;;;;;;0.10;0.10;;;13.60;99.90;;;;;;4974522;28;20211;-72
2022/03/03 12:17:58;;;;;;;0.32;0.20;;;13.60;99.90;;;;;;4972665;28;20030;-72
2022/03/03 12:20:24;;;;;;;0.20;0.20;;;13.60;99.90;;;;;;4985625;28;20444;-72
2022/03/03 12:23:10;;;;;;;0.00;0.00;;;13.90;99.90;;;;;;4975458;28;20030;-71
2022/03/03 12:25:51;;;;;;;0.70;0.52;;;13.80;99.90;;;;;;4989487;28;20032;-71
2022/03/03 12:28:20;;;;;;;0.20;0.20;;;14.00;99.90;;;;;;4981254;28;20038;-71
2022/03/03 12:30:48;;;;;;;0.80;0.40;;;14.00;99.90;;;;;;4985499;28;20037;-71
2022/03/03 12:33:30;;;;;;;0.00;0.00;;;14.20;99.90;;;;;;4983862;28;20038;-71
2022/03/03 12:36:06;;;;;;;0.00;0.00;;;14.20;99.90;;;;;;4982230;28;20031;-71
2022/03/03 12:38:35;;;;;;;0.30;0.10;;;14.10;99.90;;;;;;4982709;28;20045;-70
2022/03/03 12:41:02;;;;;;;0.00;0.00;;;14.00;99.90;;;;;;4979957;28;20034;-70
2022/03/03 12:43:38;;;;;;;0.60;0.60;;;13.90;99.90;;;;;;4980563;28;21812;-71
2022/03/03 12:46:04;;;;;;;0.88;0.10;;;13.70;99.90;;;;;;4984816;28;20026;-70
2022/03/03 12:48:32;;;;;;;0.10;0.00;;;13.70;99.90;;;;;;4980967;28;20026;-71
2022/03/03 12:51:08;;;;;;;0.00;0.00;;;13.70;99.90;;;;;;4973070;28;20033;-70
2022/03/03 12:53:42;;;;;;;0.00;0.00;;;13.70;99.90;;;;;;4986951;28;20065;-70
2022/03/03 12:56:07;;;;;;;0.17;0.17;;;13.80;99.90;;;;;;4978520;28;20034;-71
2022/03/03 12:58:35;;;;;;;0.08;0.08;;;13.90;99.90;;;;;;4977579;28;20115;-71